Hanna, Indiana
Current Conditions -  °F | °C
As of 11:35 PM on Sunday 19 Oct 2014 (Local Time) from KOXI Reporting Station
Overcast Overcast  
Wind Chill: 46°   Ceiling: 9500
Heat Index: 49°   Visibility: 10mi
Dew Point: 41°   Wind: 8mph
Humidity: 75%   Direction: 220°SW
Pressure: 29.97"   Gusts: 17mph
Location:  41.41°N, 86.78°W
Report Text: KOXI 200435Z AUTO 22007G15KT 10SM OVC095 10/05 A2997 RMK AO1 T00950052
Loading
Personal Weather Stations






























Interactive Weather Map
Tropical Storm Tracking
New forecast layout! Learn more

10-Day Weather Forecast

Advertisements
Track Severe Weather on mobile